Gonzalo Cruz

Olheiro-Chefe - Almería
4 Dez 2028
Segunda-feira
Processo

Personalidade

Adaptabilidade (9) Ambição (19) Controvérsia (8) Lealdade (11) Pressão (16) Profissionalismo (13) Espírito Esportivo (19) Temperamento (3)

Perfil

Estilo de Treinamento Democrático
Licença Nacional A
Determinação 7
Gestão de Pessoas 4
Motivação 6
Disciplina 5
Satisfação no Trabalho
100%
Fadiga
0%
Função Olheiro-Chefe
Salário 35.9K p/s
Contrato 14.03.2030

Desempenho

Comportamento Bom
Eficácia do Treinamento
49%
Desenvolvimento do Jogador
20%
Prevenção de Lesões
25%
Implementação Tática
40%

Eventos Recentes

Participou de uma reunião de recrutamento agora
Recomendou um alvo de transferência agora
Recomendou um alvo de transferência agora
Participou de uma reunião de recrutamento agora
Participou de uma reunião de recrutamento agora
Recomendou um alvo de transferência agora
Recomendou um alvo de transferência 7d atrás
Observou uma partida 7d atrás

Monitorando agora

120
Jogador Clube Status Habilidade Confiança Observado Última observação Último voto
Enes Sali Andorra Negociando 111 / 121 79% 1 28.08.2028 -
Josh Nichols Oldham Athletic Ativo 125 / 126 40% 16 17.07.2028 -
Jorge Salinas Racing Santander Ativo 137 / 140 40% 7 17.07.2028 -
Máximo Munarriz San Telmo Ativo 101 / 107 40% 2 17.07.2028 -
Giovanni Leoni Lincoln City Ativo 145 / 148 40% 10 03.07.2028 -
Roberto Medina La Equidad Ativo 91 / 104 40% 2 03.07.2028 -
Kwesi Sorotu Badori Berekum Chelsea Ativo 101 / 103 40% 1 03.07.2028 -
Riquelme Thompson-Jones Accrington Stanley Ativo 113 / 118 40% 10 26.06.2028 -
Tyler Fletcher Rotherham United Ativo 111 / 120 40% 9 25.06.2028 -
Honest Ahanor Atalanta Ativo 140 / 145 40% 18 24.06.2028 -
Daniel Banjaqui Benfica Ativo 126 / 130 40% 5 24.06.2028 -
Tobiáš Pališčák Zlin Ativo 107 / 109 40% 2 24.06.2028 -
Amine Boukamir Charleroi Ativo 107 / 111 40% 3 23.06.2028 -
Celías Ingenthron Platense Ativo 114 / 123 40% 7 19.06.2028 -
Olivier Leroux Mouscron Ativo 102 / 109 40% 4 19.06.2028 -
Nahuel Leivas Montevideo City Torque Ativo 102 / 109 40% 10 18.06.2028 -
Andrija Bulatović Chamois Niortais Ativo 129 / 134 40% 9 18.06.2028 -
Andrey Ivlev Nizhniy Novgorod Ativo 107 / 121 40% 6 16.06.2028 -
Ayden Heaven Portsmouth Ativo 149 / 151 40% 11 15.06.2028 -
Martim Cunha Porto Ativo 106 / 114 40% 6 07.06.2028 -
Lautaro Dufur Juventud Ativo 101 / 107 40% 2 06.06.2028 -
Felipe Varela Trujillanos Ativo 93 / 96 40% 2 06.06.2028 -
Kelian Le Pironnec Mirandés Ativo 98 / 104 40% 1 05.06.2028 -
Lucas Høgsberg RC Strasbourg Ativo 147 / 145 40% 13 02.06.2028 -
Kiani Inge Groningen Ativo 116 / 120 40% 2 30.05.2028 -
Inti Borghetto Patronato Ativo 96 / 99 40% 1 30.05.2028 -
Pape Diong Westerlo Ativo 123 / 129 40% 4 28.05.2028 -
Christos Mouzakitis Hull City Ativo 135 / 141 40% 6 26.05.2028 -
Thijs Kraaijeveld USM Alger Ativo 119 / 125 40% 1 17.05.2028 -
Jan Bürger Northampton Town Ativo 123 / 125 40% 1 14.05.2028 -
Lamine Bèye Portimonense Ativo 110 / 117 40% 2 12.05.2028 -
Hervin Goyes Deportivo Pasto Ativo 104 / 113 40% 1 12.05.2028 -
Trey Nyoni Rotherham United Ativo 143 / 146 40% 9 04.05.2028 -
Kamaldeen Atiemo Wa All Stars Ativo 100 / 110 40% 2 03.05.2028 -
Jorthy Mokio ADO Den Haag Ativo 128 / 136 40% 6 26.04.2028 -
Miguel Figueiredo Benfica Ativo 122 / 126 40% 3 11.04.2028 -
Konta Ismaily Ativo 98 / 105 40% 1 03.04.2028 -
Matias Siltanen Malmo FF Ativo 126 / 131 40% 8 27.02.2028 -
Izan Merino Málaga Ativo 127 / 132 40% 6 25.02.2028 -
Cheveyo Tsawa Club Brugge Ativo 123 / 129 40% 1 25.02.2028 -
Zino Sneijer Huesca Ativo 106 / 114 40% 1 23.02.2028 -
Zane Albarus Shrewsbury Town Ativo 102 / 107 40% 2 22.02.2028 -
Matvey Bardachev Zenit Ativo 107 / 110 40% 3 16.02.2028 -
Felipe Faúndez O'Higgins Ativo 100 / 106 40% 6 09.02.2028 -
Esquerdinha Notts County Ativo 119 / 128 40% 4 09.02.2028 -
Ignacio Fernández Boston River Ativo 92 / 100 40% 6 03.02.2028 -
Santiago Colidio Liepaja Ativo 94 / 98 40% 5 27.01.2028 -
Josh Acheampong Everton Ativo 145 / 148 40% 4 27.01.2028 -
Juan Manuel Villalba Tigre Ativo 123 / 126 40% 4 26.01.2028 -
Nazareno Roselli Defensa y Justicia Ativo 115 / 122 40% 6 25.01.2028 -
Bitello Universidad de Chile Ativo 135 / 135 68% 1 01.01.2028 Aprovar
Yerry Gonzalez Universitario Popayan Ativo 89 / 95 40% 3 31.12.2027 -
Agustín Obregón River Plate Ativo 114 / 118 40% 4 31.12.2027 -
Héctor Fort Real Sociedad Ativo 140 / 144 40% 2 30.12.2027 -
Victor Hernandez Santa Fe Ativo 121 / 123 40% 28 25.12.2027 -
Caleb Yirenkyi Coventry City Ativo 141 / 145 40% 6 24.12.2027 -
Colin Guske Orlando City Ativo 98 / 100 40% 4 21.12.2027 -
Archie Gray Southampton Ativo 154 / 156 40% 8 17.12.2027 -
Olaniyi Saheed Kwara United Ativo 89 / 104 40% 8 16.12.2027 -
Ángel Aguayo Sol de America Ativo 97 / 99 40% 3 28.11.2027 -
Ulises Giménez River Plate Ativo 107 / 115 40% 3 25.11.2027 -
Facundo Balatti Penarol Ativo 105 / 112 40% 4 25.11.2027 -
Nicolás Blanco San Lorenzo Ativo 96 / 108 40% 3 24.11.2027 -
Alan Valdelamar Independiente Medellin Ativo 90 / 99 40% 2 24.11.2027 -
Gideon Manaseh Ikorodu City Ativo 100 / 97 40% 2 23.11.2027 -
Adrian Skogmar Malmo FF Ativo 117 / 122 40% 2 17.11.2027 -
Luciano Posadas Central Córdoba SdE Ativo 91 / 100 40% 4 08.11.2027 -
Oscar Steinke Brånby Hammarby Ativo 104 / 108 40% 1 08.11.2027 -
Zahir Ibarra Defensa y Justicia Ativo 99 / 108 40% 1 05.11.2027 -
Hugo Rojas Instituto Ativo 109 / 109 40% 2 26.10.2027 -
Yury Oyarzo Racing Ativo 87 / 101 40% 2 24.10.2027 -
Daniel Idoko Ikorodu City Ativo 84 / 92 40% 2 24.10.2027 -
Alejandro Almaraz NK Celje Ativo 112 / 119 40% 1 23.10.2027 -
Esteban de Lima Tacuarembo Ativo 93 / 97 40% 5 21.10.2027 -
Joel Ezra Enyimba Ativo 91 / 99 40% 2 20.10.2027 -
Axel Leiva Independiente Rivadavia Ativo 90 / 97 40% 1 17.09.2027 -
Mirza Ćatović VfB Stuttgart Ativo 119 / 131 40% 1 08.09.2027 -
Diego Vargas Universidad de Concepcion Ativo 92 / 97 40% 4 04.09.2027 -
Ignacio Ovando Rosario Central Ativo 107 / 116 40% 1 02.09.2027 -
Alejandro Leiva Patronato Ativo 95 / 103 40% 2 30.08.2027 -
Federico Matarán Giana Erminio Ativo 94 / 111 40% 2 16.08.2027 -
Gadiel Paoli River Plate Ativo 89 / 101 40% 1 16.08.2027 -
Yusi Alavés Ativo 133 / 141 40% 6 11.08.2027 -
Kazunari Kita Real Sociedad Ativo 108 / 109 67% 5 02.08.2027 Observar
Mbekezeli Mbokazi Chicago Fire Ativo 119 / 126 40% 1 02.08.2027 -
Lucas Bergvall Tottenham Ativo 153 / 153 40% 1 26.07.2027 -
Simón Pinto Huachipato Ativo 106 / 108 40% 1 19.07.2027 -
Marco Oroná Antofagasta Ativo 93 / 104 40% 2 06.07.2027 -
Eliás Montiel Borussia Dortmund Ativo 137 / 137 40% 2 28.06.2027 -
Gonçalo Oliveira Benfica Ativo 112 / 115 40% 3 16.06.2027 -
Rhys Walters Port Vale Ativo 98 / 110 40% 2 16.06.2027 -
Erick Sánchez RC Lens Ativo 139 / 139 68% 1 01.06.2027 Aprovar
Yussif Saidu Zaragoza Ativo 125 / 130 40% 5 29.05.2027 -
Gustavo Albarracín Alavés Ativo 104 / 120 40% 1 25.05.2027 -
Tiago Freitas Benfica Ativo 112 / 116 40% 2 23.05.2027 -
Jenson Jones Walsall Ativo 92 / 98 40% 1 23.05.2027 -
Jon Garro Real Sociedad Ativo 95 / 91 67% 6 22.05.2027 Observar
Louis Leroux FC Nantes Ativo 124 / 132 40% 2 21.05.2027 -
Riley Owen Stevenage Ativo 101 / 108 40% 4 20.05.2027 -
Sascha Britschgi AC Milan Ativo 122 / 131 40% 1 18.05.2027 -
Henrique Silva Santa Clara Ativo 112 / 113 40% 1 12.05.2027 -
Alessandro Zoboletti Sambenedettese Ativo 86 / 98 40% 1 29.04.2027 -
James Bacca La Equidad Ativo 132 / 127 40% 4 28.04.2027 -
Ezra Mayers West Ham United Ativo 110 / 124 40% 1 23.04.2027 -
Pau Navarro Villarreal Ativo 147 / 146 40% 3 14.04.2027 -
Bernardo Lima Porto Ativo 99 / 109 40% 1 08.04.2027 -
Charlie Gray Fleetwood Town Ativo 95 / 96 40% 1 06.04.2027 -
Federico Pereira Toulouse FC Ativo 135 / 135 66% 1 01.01.2027 Aprovar
Raúl Rangel Braga Ativo 132 / 132 66% 1 01.01.2027 Aprovar
James Dornelly Peterborough United Ativo 100 / 106 40% 2 22.12.2026 -
Joaquin Seys Club Brugge Ativo 129 / 128 40% 1 20.12.2026 -
Santiago Fernández Talleres Ativo 114 / 129 40% 2 19.12.2026 -
Agustín Medina Lanús Ativo 118 / 120 40% 3 14.12.2026 -
Nico O'Reilly Manchester City Ativo 157 / 155 40% 4 14.12.2026 -
Kyriani Sabbe Club Brugge Ativo 119 / 121 40% 1 12.12.2026 -
Nahuel Arias San Lorenzo Ativo 112 / 125 40% 1 09.12.2026 -
Philippe Ndinga Philadelphia Union Ativo 114 / 112 40% 1 04.11.2026 -
Facundo Di Biasi Gimnasia La Plata Ativo 111 / 127 40% 1 07.10.2026 -
Lautaro Vargas Unión de Santa Fe Ativo 114 / 130 40% 1 07.09.2026 -
Juan Fernándes Pinto Almagro Ativo 102 / 102 40% 1 18.08.2026 -